createdAt,value
2022-12-19T00:02:42.351Z,59.33
2022-12-19T00:05:45.076Z,59.22
2022-12-19T00:08:48.703Z,59.87
2022-12-19T00:11:50.450Z,59.75
2022-12-19T00:14:51.940Z,59.59
2022-12-19T00:17:53.552Z,59.70
2022-12-19T00:21:00.303Z,59.67
2022-12-19T00:24:03.304Z,59.93
2022-12-19T00:27:06.710Z,59.25
2022-12-19T00:30:08.896Z,59.67
2022-12-19T00:33:10.496Z,59.82
2022-12-19T00:36:23.198Z,59.77
2022-12-19T00:39:24.819Z,59.45
2022-12-19T00:42:26.367Z,59.74
2022-12-19T00:45:28.012Z,59.59
2022-12-19T00:48:32.265Z,59.52
2022-12-19T00:51:36.571Z,59.93
2022-12-19T00:54:38.194Z,59.80
2022-12-19T00:57:39.847Z,59.48
2022-12-19T01:00:41.512Z,59.30
2022-12-19T01:04:04.462Z,59.46
2022-12-19T01:07:08.268Z,59.31
2022-12-19T01:10:10.027Z,59.84
2022-12-19T01:13:11.537Z,59.38
2022-12-19T01:16:13.807Z,59.88
2022-12-19T01:19:15.375Z,59.37
2022-12-19T01:22:16.929Z,59.50
2022-12-19T01:25:18.896Z,59.63
2022-12-19T01:28:20.860Z,59.61
2022-12-19T01:31:23.808Z,59.61
2022-12-19T01:34:25.398Z,59.86
2022-12-19T01:37:26.982Z,59.67
2022-12-19T01:40:28.532Z,59.73
2022-12-19T01:43:33.594Z,59.48
2022-12-19T01:46:45.197Z,59.60
2022-12-19T01:49:46.856Z,60.02
2022-12-19T01:52:48.699Z,59.81
2022-12-19T01:55:50.535Z,60.05
2022-12-19T01:59:05.883Z,60.24
2022-12-19T02:02:13.293Z,60.49
2022-12-19T02:05:15.124Z,59.87
2022-12-19T02:08:17.298Z,60.17
2022-12-19T02:11:18.949Z,60.31
2022-12-19T02:14:20.864Z,60.15
2022-12-19T02:18:01.516Z,60.36
2022-12-19T02:21:24.152Z,60.14
2022-12-19T02:24:45.495Z,59.82
2022-12-19T02:28:15.549Z,60.06
2022-12-19T02:31:34.596Z,59.99
2022-12-19T02:34:45.234Z,60.29
2022-12-19T02:38:01.159Z,60.04
2022-12-19T02:41:23.009Z,60.27
2022-12-19T02:44:30.510Z,59.92
2022-12-19T02:47:34.440Z,60.08
2022-12-19T02:50:49.905Z,60.50
2022-12-19T02:53:52.108Z,60.23
2022-12-19T02:57:08.570Z,60.39
2022-12-19T03:00:19.924Z,60.58
2022-12-19T03:03:47.317Z,60.06
2022-12-19T03:06:55.945Z,60.18
2022-12-19T03:10:17.902Z,60.43
2022-12-19T03:13:41.470Z,60.24
2022-12-19T03:16:43.372Z,60.47
2022-12-19T03:19:45.999Z,60.19
2022-12-19T03:22:47.665Z,60.23
2022-12-19T03:25:54.966Z,60.35
2022-12-19T03:29:14.075Z,60.56
2022-12-19T03:32:18.001Z,60.20
2022-12-19T03:35:26.653Z,60.57
2022-12-19T03:38:28.910Z,60.42
2022-12-19T03:41:50.361Z,60.54
2022-12-19T03:44:55.692Z,60.60
2022-12-19T03:48:01.128Z,60.65
2022-12-19T03:51:21.102Z,60.53
2022-12-19T03:54:27.617Z,60.32
2022-12-19T03:57:36.573Z,60.71
2022-12-19T04:00:41.676Z,60.64
2022-12-19T04:03:44.099Z,60.62
2022-12-19T04:06:45.860Z,60.58
2022-12-19T04:09:48.961Z,60.79
2022-12-19T04:13:01.238Z,60.67
2022-12-19T04:16:08.824Z,60.60
2022-12-19T04:19:41.102Z,60.80
2022-12-19T04:22:52.712Z,60.70
2022-12-19T04:26:00.485Z,60.52
2022-12-19T04:29:05.080Z,60.63
2022-12-19T04:32:08.319Z,60.56
2022-12-19T04:35:09.887Z,60.39
2022-12-19T04:38:11.626Z,60.60
2022-12-19T04:41:13.248Z,60.77
2022-12-19T04:44:14.809Z,61.10
2022-12-19T04:47:16.378Z,60.76
2022-12-19T04:50:17.927Z,60.69
2022-12-19T04:53:19.707Z,60.99
2022-12-19T04:56:21.301Z,60.97
2022-12-19T04:59:22.855Z,60.85
2022-12-19T05:02:24.815Z,60.75
2022-12-19T05:05:26.483Z,60.87
2022-12-19T05:08:27.988Z,60.78
2022-12-19T05:11:29.597Z,61.05
2022-12-19T05:14:31.141Z,61.07
2022-12-19T05:17:33.030Z,60.92
2022-12-19T05:20:37.044Z,61.03
2022-12-19T05:23:38.601Z,61.29
2022-12-19T05:26:40.137Z,61.18
2022-12-19T05:29:41.701Z,60.97
2022-12-19T05:32:43.254Z,61.09
2022-12-19T05:35:44.812Z,61.11
2022-12-19T05:38:46.325Z,61.10
2022-12-19T05:41:49.287Z,61.19
2022-12-19T05:44:51.025Z,61.11
2022-12-19T05:47:52.565Z,61.00
2022-12-19T05:50:54.119Z,61.05
2022-12-19T05:53:55.638Z,61.11
2022-12-19T05:56:57.211Z,60.99
2022-12-19T05:59:59.081Z,60.85
2022-12-19T06:03:00.787Z,61.10
2022-12-19T06:06:04.968Z,60.98
2022-12-19T06:09:06.560Z,61.34
2022-12-19T06:12:08.228Z,61.21
2022-12-19T06:15:10.388Z,61.07
2022-12-19T06:18:11.980Z,61.13
2022-12-19T06:21:16.665Z,62.01
2022-12-19T06:24:18.225Z,61.83
2022-12-19T06:27:19.784Z,61.45
2022-12-19T06:30:21.341Z,61.22
2022-12-19T06:33:23.506Z,60.96
2022-12-19T06:36:27.154Z,60.98
2022-12-19T06:39:28.717Z,61.25
2022-12-19T06:42:30.293Z,61.07
2022-12-19T06:45:31.963Z,61.22
2022-12-19T06:48:34.315Z,61.23
2022-12-19T06:51:35.945Z,61.28
2022-12-19T06:54:37.570Z,61.33
2022-12-19T06:57:45.934Z,61.09
2022-12-19T07:00:48.101Z,61.24
2022-12-19T07:03:50.129Z,61.25
2022-12-19T07:06:51.761Z,61.14
2022-12-19T07:09:53.353Z,61.49
2022-12-19T07:12:54.901Z,61.18
2022-12-19T07:16:02.843Z,61.38
2022-12-19T07:19:05.321Z,61.34
2022-12-19T07:22:07.561Z,61.38
2022-12-19T07:25:09.829Z,61.29
2022-12-19T07:28:11.804Z,61.02
2022-12-19T07:31:13.395Z,61.25
2022-12-19T07:34:14.998Z,61.09
2022-12-19T07:37:16.540Z,61.29
2022-12-19T07:40:18.462Z,61.33
2022-12-19T07:43:20.078Z,61.46
2022-12-19T07:46:22.118Z,61.88
2022-12-19T07:49:23.854Z,61.36
2022-12-19T07:52:26.049Z,61.61
2022-12-19T07:55:28.323Z,61.53
2022-12-19T07:58:30.705Z,61.41
2022-12-19T08:01:32.325Z,61.50
2022-12-19T08:04:34.007Z,61.38
2022-12-19T08:07:35.626Z,61.82
2022-12-19T08:10:37.205Z,61.96
2022-12-19T08:13:44.776Z,62.03
2022-12-19T08:17:18.796Z,61.88
2022-12-19T08:20:13.675Z,61.65
2022-12-19T08:23:15.256Z,61.87
2022-12-19T08:26:24.913Z,61.86
2022-12-19T08:29:27.104Z,61.89
2022-12-19T08:32:28.630Z,62.28
2022-12-19T08:35:30.232Z,61.90
2022-12-19T08:38:32.000Z,62.01
2022-12-19T08:41:33.859Z,61.97
2022-12-19T08:44:35.465Z,61.71
2022-12-19T08:47:37.044Z,61.61
2022-12-19T08:50:38.560Z,61.63
2022-12-19T08:53:41.872Z,61.87
2022-12-19T08:56:46.720Z,62.01
2022-12-19T08:59:48.535Z,62.04
2022-12-19T09:02:51.704Z,61.91
2022-12-19T09:06:08.214Z,61.87
2022-12-19T09:09:11.994Z,61.99
2022-12-19T09:12:15.097Z,62.04
2022-12-19T09:15:16.641Z,62.10
2022-12-19T09:18:18.184Z,61.79
2022-12-19T09:21:23.845Z,61.93
2022-12-19T09:24:25.668Z,61.85
2022-12-19T09:27:27.272Z,62.00
2022-12-19T09:30:29.073Z,61.92
2022-12-19T09:33:35.535Z,62.21
2022-12-19T09:36:41.103Z,62.04
2022-12-19T09:39:42.629Z,62.05
2022-12-19T09:42:50.154Z,62.24
2022-12-19T09:45:54.848Z,61.98
2022-12-19T09:48:57.902Z,62.01
2022-12-19T09:52:06.138Z,62.11
2022-12-19T09:55:28.359Z,62.29
2022-12-19T09:58:43.271Z,62.23
2022-12-19T10:01:58.110Z,62.26
2022-12-19T10:06:09.235Z,62.30
2022-12-19T10:09:03.095Z,62.23
2022-12-19T10:12:45.226Z,62.10
2022-12-19T10:16:39.810Z,62.00
2022-12-19T10:20:09.760Z,62.30
2022-12-19T10:23:17.049Z,62.37
2022-12-19T10:26:23.483Z,62.46
2022-12-19T10:30:01.306Z,62.17
2022-12-19T10:33:31.871Z,62.32
2022-12-19T10:40:32.428Z,62.14
2022-12-19T10:43:59.213Z,62.50
2022-12-19T10:47:00.818Z,62.53
2022-12-19T10:50:09.665Z,62.28
2022-12-19T10:53:13.266Z,62.27
2022-12-19T10:56:34.990Z,62.24
2022-12-19T10:59:38.935Z,62.54
2022-12-19T11:02:47.672Z,62.57
2022-12-19T11:05:58.499Z,62.25
2022-12-19T11:09:44.581Z,62.31
2022-12-19T11:16:40.549Z,62.65
2022-12-19T11:22:30.457Z,62.59
2022-12-19T11:28:45.059Z,62.47
2022-12-19T11:29:54.357Z,62.76
2022-12-19T11:30:34.379Z,62.74
2022-12-19T11:33:46.006Z,62.43
2022-12-19T11:37:09.791Z,62.64
2022-12-19T11:40:15.876Z,62.58
2022-12-19T11:43:45.387Z,62.71
2022-12-19T11:47:09.710Z,62.60
2022-12-19T11:50:21.786Z,62.41
2022-12-19T11:54:02.411Z,62.52
2022-12-19T11:57:04.091Z,62.52
2022-12-19T12:00:06.420Z,62.60
2022-12-19T12:03:13.707Z,62.84
2022-12-19T12:06:19.024Z,62.62
2022-12-19T12:14:12.363Z,62.75
2022-12-19T12:16:37.162Z,62.57
2022-12-19T12:31:14.155Z,62.58
2022-12-19T12:31:26.956Z,62.86
2022-12-19T12:31:42.236Z,62.75
2022-12-19T12:31:53.908Z,62.73
2022-12-19T12:36:54.506Z,62.78
2022-12-19T12:38:47.437Z,62.85
2022-12-19T12:42:37.184Z,62.86
2022-12-19T12:45:41.000Z,62.86
2022-12-19T12:48:45.507Z,62.95
2022-12-19T12:51:47.469Z,62.76
2022-12-19T12:54:50.431Z,62.84
2022-12-19T12:57:52.254Z,62.91
2022-12-19T13:01:17.600Z,62.76
2022-12-19T13:04:27.494Z,62.80
2022-12-19T13:07:40.535Z,62.98
2022-12-19T13:10:53.942Z,62.77
2022-12-19T13:13:58.168Z,62.85
2022-12-19T13:17:00.741Z,63.08
2022-12-19T13:20:05.029Z,63.06
2022-12-19T13:23:20.901Z,62.91
2022-12-19T13:26:46.731Z,62.96
2022-12-19T13:30:03.874Z,62.94
2022-12-19T13:33:07.653Z,62.92
2022-12-19T13:39:52.444Z,62.92
2022-12-19T13:40:34.264Z,64.19
2022-12-19T13:43:47.657Z,64.19
2022-12-19T13:46:49.882Z,64.24
2022-12-19T13:49:52.384Z,64.02
2022-12-19T13:52:54.196Z,63.56
2022-12-19T13:56:11.639Z,63.34
2022-12-19T13:59:13.511Z,63.18
2022-12-19T14:02:22.648Z,63.10
2022-12-19T14:06:16.875Z,62.98
2022-12-19T14:11:26.284Z,62.98
2022-12-19T14:13:59.066Z,63.00
2022-12-19T14:16:39.824Z,63.08
2022-12-19T14:19:53.158Z,63.15
2022-12-19T14:23:09.553Z,63.20
2022-12-19T14:28:24.084Z,63.18
2022-12-19T14:30:27.605Z,63.09
2022-12-19T14:33:54.194Z,63.18
2022-12-19T14:36:52.184Z,63.17
2022-12-19T14:39:59.181Z,63.24
2022-12-19T14:43:56.815Z,63.30
2022-12-19T14:54:08.206Z,63.23
2022-12-19T14:54:25.678Z,63.22
2022-12-19T14:56:03.759Z,63.28
2022-12-19T14:58:50.955Z,63.33
2022-12-19T15:01:22.945Z,63.35
2022-12-19T15:04:51.788Z,63.15
2022-12-19T15:07:55.611Z,63.20
2022-12-19T15:11:44.536Z,63.30
2022-12-19T15:14:58.994Z,63.25
2022-12-19T15:18:04.382Z,63.20
2022-12-19T15:21:09.908Z,63.13
2022-12-19T15:24:11.446Z,63.22
2022-12-19T15:27:15.698Z,63.18
2022-12-19T15:30:20.485Z,63.16
2022-12-19T15:33:22.289Z,63.24
2022-12-19T15:36:24.047Z,63.04
2022-12-19T15:39:29.411Z,63.12
2022-12-19T15:42:31.420Z,63.09
2022-12-19T15:45:33.475Z,63.22
2022-12-19T15:48:39.402Z,63.25
2022-12-19T15:51:41.301Z,63.18
2022-12-19T15:54:51.120Z,63.07
2022-12-19T15:57:59.717Z,63.10
2022-12-19T16:01:03.762Z,63.12
2022-12-19T16:04:13.255Z,63.16
2022-12-19T16:07:23.487Z,63.26
2022-12-19T16:10:26.023Z,63.10
2022-12-19T16:13:32.271Z,62.91
2022-12-19T16:16:34.466Z,63.13
2022-12-19T16:19:36.064Z,63.09
2022-12-19T16:22:38.848Z,63.04
2022-12-19T16:25:43.607Z,63.09
2022-12-19T16:28:45.163Z,62.94
2022-12-19T16:31:46.777Z,63.14
2022-12-19T16:34:48.445Z,63.15
2022-12-19T16:37:50.363Z,63.09
2022-12-19T16:40:52.759Z,63.05
2022-12-19T16:43:54.532Z,63.08
2022-12-19T16:46:56.105Z,63.06
2022-12-19T16:49:57.677Z,63.05
2022-12-19T16:52:59.245Z,62.92
2022-12-19T16:56:01.410Z,63.09
2022-12-19T16:59:08.492Z,62.99
2022-12-19T17:02:58.644Z,63.04
2022-12-19T17:06:01.085Z,63.06
2022-12-19T17:09:02.693Z,62.99
2022-12-19T17:12:04.434Z,63.13
2022-12-19T17:15:17.990Z,63.07
2022-12-19T17:18:29.323Z,63.05
2022-12-19T17:21:30.890Z,63.05
2022-12-19T17:24:32.447Z,63.08
2022-12-19T17:27:33.996Z,63.13
2022-12-19T17:30:36.509Z,63.09
2022-12-19T17:33:40.462Z,63.03
2022-12-19T17:36:42.297Z,62.97
2022-12-19T17:39:43.868Z,62.90
2022-12-19T17:42:45.924Z,62.97
2022-12-19T17:45:47.636Z,62.92
2022-12-19T17:48:52.158Z,63.03
2022-12-19T17:51:54.496Z,63.00
2022-12-19T17:54:56.018Z,63.15
2022-12-19T17:57:58.146Z,63.10
2022-12-19T18:00:59.732Z,62.93
2022-12-19T18:04:01.630Z,62.90
2022-12-19T18:07:03.481Z,63.07
2022-12-19T18:10:14.364Z,62.79
2022-12-19T18:13:16.172Z,62.98
2022-12-19T18:16:26.519Z,62.98
2022-12-19T18:19:31.589Z,62.86
2022-12-19T18:22:33.179Z,62.92
2022-12-19T18:25:35.847Z,62.91
2022-12-19T18:28:38.577Z,62.90
2022-12-19T18:31:46.425Z,62.90
2022-12-19T18:34:51.640Z,62.91
2022-12-19T18:37:53.217Z,62.91
2022-12-19T18:40:54.747Z,62.84
2022-12-19T18:43:56.372Z,62.75
2022-12-19T18:46:58.955Z,62.84
2022-12-19T18:50:00.560Z,62.92
2022-12-19T18:53:02.117Z,62.78
2022-12-19T18:56:06.000Z,62.81
2022-12-19T18:59:07.609Z,62.92
2022-12-19T19:02:26.789Z,62.94
2022-12-19T19:05:34.258Z,62.84
2022-12-19T19:08:35.906Z,62.75
2022-12-19T19:11:37.392Z,62.90
2022-12-19T19:14:39.395Z,62.77
2022-12-19T19:17:42.288Z,62.65
2022-12-19T19:20:45.891Z,62.78
2022-12-19T19:23:52.517Z,62.78
2022-12-19T19:26:54.087Z,62.68
2022-12-19T19:29:55.610Z,62.78
2022-12-19T19:33:02.072Z,62.68
2022-12-19T19:36:12.325Z,62.73
2022-12-19T19:39:14.386Z,62.92
2022-12-19T19:42:16.255Z,62.63
2022-12-19T19:45:17.854Z,62.69
2022-12-19T19:48:19.430Z,62.63
2022-12-19T19:51:21.272Z,62.72
2022-12-19T19:54:22.874Z,62.68
2022-12-19T19:57:24.659Z,62.65
2022-12-19T20:00:26.218Z,62.72
2022-12-19T20:03:27.904Z,62.58
2022-12-19T20:06:29.773Z,62.76
2022-12-19T20:09:31.543Z,62.61
2022-12-19T20:12:33.647Z,62.60
2022-12-19T20:15:35.206Z,62.66
2022-12-19T20:18:40.077Z,62.71
2022-12-19T20:21:42.761Z,62.52
2022-12-19T20:24:44.345Z,62.65
2022-12-19T20:27:46.143Z,62.34
2022-12-19T20:30:47.754Z,62.80
2022-12-19T20:33:50.602Z,62.49
2022-12-19T20:36:52.319Z,62.57
2022-12-19T20:39:53.866Z,62.60
2022-12-19T20:42:55.408Z,62.54
2022-12-19T20:46:08.654Z,62.61
2022-12-19T20:49:11.624Z,62.51
2022-12-19T20:52:13.170Z,62.53
2022-12-19T20:55:14.850Z,62.53
2022-12-19T20:58:16.435Z,62.45
2022-12-19T21:01:20.863Z,62.58
2022-12-19T21:04:22.775Z,62.60
2022-12-19T21:07:24.547Z,62.57
2022-12-19T21:10:26.136Z,62.45
2022-12-19T21:13:28.324Z,62.52
2022-12-19T21:16:30.128Z,62.59
2022-12-19T21:19:31.770Z,62.57
2022-12-19T21:22:33.399Z,62.55
2022-12-19T21:25:34.919Z,62.50
2022-12-19T21:28:37.769Z,62.42
2022-12-19T21:31:39.480Z,62.54
2022-12-19T21:34:41.047Z,62.60
2022-12-19T21:37:44.199Z,62.49
2022-12-19T21:40:45.811Z,62.52
2022-12-19T21:43:49.246Z,62.51
2022-12-19T21:46:50.925Z,62.36
2022-12-19T21:49:52.536Z,62.50
2022-12-19T21:52:55.950Z,62.51
2022-12-19T21:56:07.237Z,62.46
2022-12-19T21:59:14.450Z,62.66
2022-12-19T22:02:16.386Z,62.35
2022-12-19T22:05:18.155Z,62.31
2022-12-19T22:08:19.701Z,62.33
2022-12-19T22:11:21.733Z,62.33
2022-12-19T22:14:23.508Z,62.29
2022-12-19T22:17:26.986Z,62.43
2022-12-19T22:20:28.511Z,62.44
2022-12-19T22:23:30.476Z,62.36
2022-12-19T22:26:32.913Z,62.47
2022-12-19T22:29:36.663Z,62.43
2022-12-19T22:32:38.353Z,62.40
2022-12-19T22:35:40.447Z,62.28
2022-12-19T22:38:46.591Z,62.40
2022-12-19T22:41:48.624Z,62.43
2022-12-19T22:44:50.169Z,62.49
2022-12-19T22:47:51.795Z,62.40
2022-12-19T22:50:53.339Z,62.34
2022-12-19T22:53:55.957Z,62.32
2022-12-19T22:56:57.491Z,62.37
2022-12-19T22:59:59.025Z,62.31
2022-12-19T23:03:01.279Z,62.29
2022-12-19T23:06:03.064Z,62.22
2022-12-19T23:09:07.456Z,62.33
2022-12-19T23:12:09.046Z,62.35
2022-12-19T23:15:10.832Z,62.33
2022-12-19T23:18:12.634Z,62.27
2022-12-19T23:21:22.871Z,62.27
2022-12-19T23:24:24.529Z,62.11
2022-12-19T23:27:27.859Z,62.40
2022-12-19T23:30:29.379Z,62.40
2022-12-19T23:33:32.817Z,62.27
2022-12-19T23:39:55.951Z,62.37
2022-12-19T23:42:57.502Z,62.21
2022-12-19T23:45:59.211Z,62.34
2022-12-19T23:49:00.836Z,62.50
2022-12-19T23:52:02.460Z,62.43
2022-12-19T23:55:04.401Z,62.48
2022-12-19T23:58:13.669Z,62.41
